createdAt,value
2019-02-04T00:01:22.625Z,98922.11
2019-02-04T00:03:52.415Z,98917.26
2019-02-04T00:06:21.651Z,98923.81
2019-02-04T00:08:50.899Z,98929.97
2019-02-04T00:11:20.181Z,98930.92
2019-02-04T00:13:49.458Z,98935.33
2019-02-04T00:16:18.998Z,98936.58
2019-02-04T00:18:48.381Z,98937.77
2019-02-04T00:21:17.628Z,98937.14
2019-02-04T00:23:49.292Z,98940.03
2019-02-04T00:26:18.527Z,98947.25
2019-02-04T00:28:47.748Z,98956.37
2019-02-04T00:31:17.000Z,98953.95
2019-02-04T00:33:48.076Z,98959.95
2019-02-04T00:36:17.320Z,98957.88
2019-02-04T00:38:47.687Z,98958.44
2019-02-04T00:41:16.926Z,98962.59
2019-02-04T00:43:46.151Z,98975.05
2019-02-04T00:46:16.072Z,98980.44
2019-02-04T00:48:45.440Z,98980.55
2019-02-04T00:51:14.680Z,98992.56
2019-02-04T00:53:44.894Z,98991.81
2019-02-04T00:56:15.445Z,98999.48
2019-02-04T00:58:44.686Z,99000.84
2019-02-04T01:01:13.926Z,99004.58
2019-02-04T01:03:43.159Z,99008.94
2019-02-04T01:06:12.419Z,99016.66
2019-02-04T01:08:41.808Z,99018.16
2019-02-04T01:11:11.159Z,99027.09
2019-02-04T01:13:40.381Z,99032.72
2019-02-04T01:16:10.024Z,99029.44
2019-02-04T01:18:39.314Z,99028.31
2019-02-04T01:21:08.388Z,99038.56
2019-02-04T01:23:37.821Z,99046.89
2019-02-04T01:26:07.107Z,99047.42
2019-02-04T01:28:37.228Z,99045.16
2019-02-04T01:31:06.287Z,99048.34
2019-02-04T01:33:36.126Z,99049.29
2019-02-04T01:36:05.489Z,99061.09
2019-02-04T01:38:36.199Z,99063.89
2019-02-04T01:41:05.410Z,99067.67
2019-02-04T01:43:34.679Z,99069.64
2019-02-04T01:46:03.925Z,99074.39
2019-02-04T01:48:33.165Z,99076.44
2019-02-04T01:51:04.221Z,99078.98
2019-02-04T01:53:33.476Z,99086.00
2019-02-04T01:56:03.075Z,99086.00
2019-02-04T01:58:32.348Z,99093.22
2019-02-04T02:01:01.938Z,99088.55
2019-02-04T02:03:31.226Z,99094.94
2019-02-04T02:06:00.796Z,99103.45
2019-02-04T02:08:30.033Z,99100.05
2019-02-04T02:11:02.415Z,99101.09
2019-02-04T02:13:32.897Z,99103.86
2019-02-04T02:16:02.116Z,99100.49
2019-02-04T02:18:31.413Z,99109.83
2019-02-04T02:21:00.658Z,99110.97
2019-02-04T02:23:30.193Z,99113.80
2019-02-04T02:25:59.410Z,99112.39
2019-02-04T02:28:28.662Z,99110.61
2019-02-04T02:30:57.920Z,99108.02
2019-02-04T02:33:27.171Z,99113.05
2019-02-04T02:35:56.751Z,99116.17
2019-02-04T02:38:26.167Z,99121.78
2019-02-04T02:40:55.402Z,99119.37
2019-02-04T02:43:24.640Z,99122.22
2019-02-04T02:45:55.062Z,99131.78
2019-02-04T02:48:24.336Z,99136.08
2019-02-04T02:50:53.562Z,99131.28
2019-02-04T02:53:23.186Z,99133.66
2019-02-04T02:55:52.421Z,99134.97
2019-02-04T02:58:21.745Z,99131.89
2019-02-04T03:00:50.934Z,99147.33
2019-02-04T03:03:20.193Z,99146.39
2019-02-04T03:05:50.006Z,99135.21
2019-02-04T03:08:19.267Z,99140.74
2019-02-04T03:10:48.511Z,99136.95
2019-02-04T03:13:21.311Z,99144.69
2019-02-04T03:15:50.563Z,99143.83
2019-02-04T03:18:19.815Z,99145.98
2019-02-04T03:20:49.313Z,99151.42
2019-02-04T03:23:18.561Z,99151.03
2019-02-04T03:25:47.803Z,99151.37
2019-02-04T03:28:17.064Z,99154.85
2019-02-04T03:30:46.282Z,99156.63
2019-02-04T03:33:17.214Z,99163.17
2019-02-04T03:35:46.455Z,99168.20
2019-02-04T03:38:15.745Z,99175.22
2019-02-04T03:40:44.982Z,99174.39
2019-02-04T03:43:14.627Z,99172.50
2019-02-04T03:45:43.883Z,99176.67
2019-02-04T03:48:13.150Z,99179.70
2019-02-04T03:50:42.398Z,99185.61
2019-02-04T03:53:11.985Z,99185.38
2019-02-04T03:55:41.243Z,99191.38
2019-02-04T03:58:10.493Z,99186.00
2019-02-04T04:00:39.748Z,99193.13
2019-02-04T04:03:09.649Z,99200.30
2019-02-04T04:05:38.911Z,99201.52
2019-02-04T04:08:08.497Z,99212.47
2019-02-04T04:10:37.742Z,99208.69
2019-02-04T04:13:06.968Z,99218.32
2019-02-04T04:15:36.240Z,99220.85
2019-02-04T04:18:15.636Z,99224.45
2019-02-04T04:20:36.411Z,99222.43
2019-02-04T04:23:05.630Z,99225.98
2019-02-04T04:25:35.143Z,99230.55
2019-02-04T04:28:04.374Z,99234.35
2019-02-04T04:30:34.621Z,99226.38
2019-02-04T04:33:03.853Z,99236.63
2019-02-04T04:35:33.099Z,99232.23
2019-02-04T04:38:02.325Z,99239.45
2019-02-04T04:40:31.581Z,99244.59
2019-02-04T04:43:00.797Z,99244.94
2019-02-04T04:45:31.684Z,99241.52
2019-02-04T04:48:00.959Z,99249.02
2019-02-04T04:50:30.201Z,99250.66
2019-02-04T04:52:59.447Z,99258.03
2019-02-04T04:55:28.686Z,99255.78
2019-02-04T04:57:57.909Z,99253.41
2019-02-04T05:00:29.713Z,99260.38
2019-02-04T05:02:59.893Z,99268.69
2019-02-04T05:05:29.147Z,99270.02
2019-02-04T05:07:58.358Z,99273.22
2019-02-04T05:10:27.716Z,99278.42
2019-02-04T05:12:56.950Z,99280.33
2019-02-04T05:15:28.158Z,99280.67
2019-02-04T05:17:57.645Z,99288.52
2019-02-04T05:20:27.015Z,99297.77
2019-02-04T05:22:56.348Z,99292.65
2019-02-04T05:25:25.577Z,99303.05
2019-02-04T05:27:55.208Z,99309.70
2019-02-04T05:30:25.429Z,99312.80
2019-02-04T05:32:55.614Z,99314.70
2019-02-04T05:35:25.428Z,99314.59
2019-02-04T05:37:56.841Z,99316.06
2019-02-04T05:40:26.059Z,99328.19
2019-02-04T05:42:55.318Z,99330.21
2019-02-04T05:45:24.542Z,99326.89
2019-02-04T05:47:53.791Z,99339.60
2019-02-04T05:50:23.047Z,99337.79
2019-02-04T05:52:52.306Z,99345.05
2019-02-04T05:55:23.067Z,99342.48
2019-02-04T05:57:53.163Z,99346.16
2019-02-04T06:00:40.300Z,99351.62
2019-02-04T06:03:09.540Z,99355.11
2019-02-04T06:05:38.757Z,99359.80
2019-02-04T06:08:08.029Z,99358.95
2019-02-04T06:10:37.427Z,99364.12
2019-02-04T06:13:08.950Z,99367.19
2019-02-04T06:15:38.180Z,99366.38
2019-02-04T06:18:07.432Z,99370.35
2019-02-04T06:20:39.363Z,99378.09
2019-02-04T06:23:08.615Z,99383.09
2019-02-04T06:25:37.832Z,99384.63
2019-02-04T06:28:07.553Z,99387.69
2019-02-04T06:30:36.763Z,99393.36
2019-02-04T06:33:07.588Z,99387.62
2019-02-04T06:35:38.050Z,99389.48
2019-02-04T06:38:07.313Z,99396.11
2019-02-04T06:40:36.853Z,99394.13
2019-02-04T06:43:06.967Z,99403.27
2019-02-04T06:45:36.185Z,99404.69
2019-02-04T06:48:06.347Z,99397.81
2019-02-04T06:50:35.564Z,99407.30
2019-02-04T06:53:05.126Z,99405.06
2019-02-04T06:55:34.793Z,99406.30
2019-02-04T06:58:04.103Z,99408.46
2019-02-04T07:00:34.906Z,99403.55
2019-02-04T07:03:04.544Z,99406.96
2019-02-04T07:05:43.489Z,99408.46
2019-02-04T07:08:07.621Z,99409.12
2019-02-04T07:10:36.844Z,99416.48
2019-02-04T07:13:06.089Z,99426.97
2019-02-04T07:15:35.405Z,99419.14
2019-02-04T07:18:06.875Z,99430.63
2019-02-04T07:20:36.109Z,99434.12
2019-02-04T07:23:05.350Z,99431.69
2019-02-04T07:25:34.553Z,99438.05
2019-02-04T07:28:03.797Z,99444.32
2019-02-04T07:30:33.415Z,99446.53
2019-02-04T07:33:02.661Z,99443.61
2019-02-04T07:35:32.193Z,99449.85
2019-02-04T07:38:01.454Z,99443.15
2019-02-04T07:40:32.193Z,99450.91
2019-02-04T07:43:01.485Z,99452.23
2019-02-04T07:45:32.092Z,99455.84
2019-02-04T07:48:01.309Z,99457.04
2019-02-04T07:50:30.544Z,99466.11
2019-02-04T07:52:59.767Z,99459.57
2019-02-04T07:55:29.010Z,99463.04
2019-02-04T07:57:58.520Z,99472.59
2019-02-04T08:00:30.232Z,99468.73
2019-02-04T08:02:59.793Z,99466.91
2019-02-04T08:05:29.566Z,99463.36
2019-02-04T08:07:58.686Z,99474.19
2019-02-04T08:10:27.941Z,99469.44
2019-02-04T08:13:01.470Z,99469.09
2019-02-04T08:15:30.502Z,99467.16
2019-02-04T08:17:59.750Z,99464.42
2019-02-04T08:20:29.012Z,99468.14
2019-02-04T08:22:58.252Z,99471.70
2019-02-04T08:25:27.706Z,99474.81
2019-02-04T08:27:57.686Z,99474.84
2019-02-04T08:30:29.637Z,99474.75
2019-02-04T08:32:58.950Z,99473.27
2019-02-04T08:35:30.351Z,99476.27
2019-02-04T08:37:59.578Z,99471.95
2019-02-04T08:40:28.841Z,99481.11
2019-02-04T08:42:58.426Z,99483.02
2019-02-04T08:45:27.670Z,99490.01
2019-02-04T08:47:56.885Z,99504.09
2019-02-04T08:50:26.533Z,99503.81
2019-02-04T08:52:55.757Z,99497.89
2019-02-04T08:55:25.503Z,99502.52
2019-02-04T08:57:55.042Z,99496.80
2019-02-04T09:00:24.594Z,99497.48
2019-02-04T09:02:54.379Z,99498.93
2019-02-04T09:05:24.783Z,99507.25
2019-02-04T09:07:54.014Z,99508.45
2019-02-04T09:10:31.545Z,99510.45
2019-02-04T09:13:01.557Z,99502.67
2019-02-04T09:15:30.796Z,99510.52
2019-02-04T09:18:03.557Z,99516.14
2019-02-04T09:20:32.828Z,99506.74
2019-02-04T09:23:02.059Z,99510.94
2019-02-04T09:25:31.755Z,99511.52
2019-02-04T09:28:02.309Z,99517.82
2019-02-04T09:30:31.549Z,99516.47
2019-02-04T09:33:01.182Z,99516.51
2019-02-04T09:35:30.445Z,99515.50
2019-02-04T09:37:59.849Z,99522.40
2019-02-04T09:40:35.323Z,99514.86
2019-02-04T09:43:05.733Z,99523.31
2019-02-04T09:45:34.993Z,99523.20
2019-02-04T09:48:04.768Z,99522.34
2019-02-04T09:50:36.662Z,99530.70
2019-02-04T09:53:06.464Z,99532.70
2019-02-04T09:55:37.114Z,99526.72
2019-02-04T09:58:06.533Z,99532.33
2019-02-04T10:00:36.611Z,99536.26
2019-02-04T10:03:07.101Z,99534.10
2019-02-04T10:05:36.424Z,99538.51
2019-02-04T10:08:06.409Z,99532.42
2019-02-04T10:10:35.739Z,99535.37
2019-02-04T10:13:05.875Z,99531.33
2019-02-04T10:15:39.384Z,99528.16
2019-02-04T10:18:09.989Z,99526.84
2019-02-04T10:20:39.717Z,99523.76
2019-02-04T10:23:09.224Z,99521.89
2019-02-04T10:25:40.236Z,99521.44
2019-02-04T10:28:10.380Z,99517.71
2019-02-04T10:30:39.574Z,99512.31
2019-02-04T10:33:09.191Z,99510.12
2019-02-04T10:35:38.532Z,99516.73
2019-02-04T10:38:08.073Z,99513.52
2019-02-04T10:40:37.286Z,99516.92
2019-02-04T10:43:13.744Z,99519.09
2019-02-04T10:45:43.348Z,99519.85
2019-02-04T10:48:12.652Z,99526.73
2019-02-04T10:50:46.700Z,99519.16
2019-02-04T10:53:15.253Z,99517.55
2019-02-04T10:55:44.739Z,99518.08
2019-02-04T10:58:14.509Z,99516.32
2019-02-04T11:00:44.187Z,99513.37
2019-02-04T11:03:14.501Z,99516.63
2019-02-04T11:05:44.388Z,99507.33
2019-02-04T11:08:14.128Z,99510.10
2019-02-04T11:10:44.142Z,99512.50
2019-02-04T11:13:15.475Z,99513.11
2019-02-04T11:15:45.725Z,99502.17
2019-02-04T11:18:15.787Z,99501.31
2019-02-04T11:20:57.199Z,99494.44
2019-02-04T11:23:16.512Z,99500.78
2019-02-04T11:25:45.763Z,99501.83
2019-02-04T11:28:15.420Z,99497.20
2019-02-04T11:30:47.361Z,99491.14
2019-02-04T11:33:16.597Z,99495.42
2019-02-04T11:35:45.941Z,99486.41
2019-02-04T11:38:22.632Z,99484.51
2019-02-04T11:40:52.252Z,99490.74
2019-02-04T11:43:21.503Z,99482.79
2019-02-04T11:45:50.707Z,99479.12
2019-02-04T11:48:20.071Z,99470.11
2019-02-04T11:50:49.613Z,99477.76
2019-02-04T11:53:18.855Z,99483.60
2019-02-04T11:55:48.467Z,99491.39
2019-02-04T11:58:17.722Z,99481.55
2019-02-04T12:00:47.397Z,99482.69
2019-02-04T12:03:16.974Z,99469.87
2019-02-04T12:05:46.212Z,99477.48
2019-02-04T12:08:17.703Z,99468.42
2019-02-04T12:10:56.700Z,99469.92
2019-02-04T12:13:27.888Z,99462.27
2019-02-04T12:15:59.311Z,99458.59
2019-02-04T12:18:28.668Z,99458.59
2019-02-04T12:20:57.897Z,99447.50
2019-02-04T12:23:27.145Z,99456.16
2019-02-04T12:25:56.373Z,99448.12
2019-02-04T12:28:25.668Z,99447.92
2019-02-04T12:30:54.892Z,99452.04
2019-02-04T12:33:26.889Z,99442.13
2019-02-04T12:35:56.570Z,99444.16
2019-02-04T12:38:25.838Z,99438.28
2019-02-04T12:40:55.927Z,99431.14
2019-02-04T12:43:25.207Z,99429.96
2019-02-04T12:45:55.341Z,99425.41
2019-02-04T12:48:24.692Z,99427.97
2019-02-04T12:50:55.276Z,99431.62
2019-02-04T12:53:24.532Z,99426.86
2019-02-04T12:55:53.843Z,99425.12
2019-02-04T12:58:23.100Z,99427.15
2019-02-04T13:00:52.375Z,99429.08
2019-02-04T13:03:21.641Z,99425.97
2019-02-04T13:05:53.424Z,99431.73
2019-02-04T13:08:22.656Z,99425.47
2019-02-04T13:10:51.897Z,99421.91
2019-02-04T13:13:22.615Z,99424.55
2019-02-04T13:15:51.960Z,99423.37
2019-02-04T13:18:21.519Z,99420.53
2019-02-04T13:20:50.963Z,99426.91
2019-02-04T13:23:20.202Z,99434.20
2019-02-04T13:25:49.847Z,99422.19
2019-02-04T13:28:23.027Z,99421.36
2019-02-04T13:30:52.302Z,99420.61
2019-02-04T13:33:22.227Z,99422.44
2019-02-04T13:35:51.305Z,99415.62
2019-02-04T13:38:20.543Z,99413.95
2019-02-04T13:40:49.836Z,99412.89
2019-02-04T13:43:19.202Z,99405.35
2019-02-04T13:45:48.543Z,99407.82
2019-02-04T13:48:17.902Z,99402.15
2019-02-04T13:50:47.159Z,99406.07
2019-02-04T13:53:16.378Z,99398.91
2019-02-04T13:55:51.737Z,99395.58
2019-02-04T13:58:22.261Z,99392.71
2019-02-04T14:00:51.823Z,99391.98
2019-02-04T14:03:21.047Z,99397.02
2019-02-04T14:05:50.443Z,99389.87
2019-02-04T14:08:19.676Z,99379.99
2019-02-04T14:10:49.402Z,99379.89
2019-02-04T14:13:19.956Z,99379.28
2019-02-04T14:15:49.356Z,99376.41
2019-02-04T14:18:18.687Z,99373.78
2019-02-04T14:20:47.944Z,99371.15
2019-02-04T14:23:17.362Z,99358.25
2019-02-04T14:25:46.618Z,99364.66
2019-02-04T14:28:16.145Z,99353.53
2019-02-04T14:30:46.962Z,99346.98
2019-02-04T14:33:16.199Z,99343.19
2019-02-04T14:35:45.443Z,99345.17
2019-02-04T14:38:14.664Z,99349.76
2019-02-04T14:40:44.214Z,99348.06
2019-02-04T14:43:59.117Z,99343.55
2019-02-04T14:47:10.778Z,99344.65
2019-02-04T14:50:08.924Z,99344.33
2019-02-04T14:52:53.879Z,99336.31
2019-02-04T14:56:07.876Z,99332.05
2019-02-04T14:59:04.381Z,99329.15
2019-02-04T15:02:10.080Z,99323.27
2019-02-04T15:04:54.266Z,99315.83
2019-02-04T15:08:06.066Z,99308.23
2019-02-04T15:10:50.438Z,99302.20
2019-02-04T15:13:34.884Z,99297.76
2019-02-04T15:16:48.052Z,99297.17
2019-02-04T15:19:53.798Z,99279.21
2019-02-04T15:22:47.250Z,99286.66
2019-02-04T15:25:48.368Z,99282.36
2019-02-04T15:28:29.604Z,99271.41
2019-02-04T15:31:14.929Z,99274.74
2019-02-04T15:34:15.282Z,99263.44
2019-02-04T15:37:28.809Z,99258.27
2019-02-04T15:40:32.498Z,99256.03
2019-02-04T15:43:48.926Z,99264.05
2019-02-04T15:46:31.586Z,99260.24
2019-02-04T15:49:50.852Z,99258.81
2019-02-04T15:52:18.141Z,99253.95
2019-02-04T15:54:49.424Z,99264.55
2019-02-04T15:57:19.297Z,99265.95
2019-02-04T15:59:48.709Z,99267.63
2019-02-04T16:02:17.947Z,99268.87
2019-02-04T16:04:47.237Z,99272.91
2019-02-04T16:07:16.724Z,99275.63
2019-02-04T16:09:45.969Z,99287.38
2019-02-04T16:12:15.629Z,99284.30
2019-02-04T16:14:44.876Z,99281.44
2019-02-04T16:17:14.326Z,99290.46
2019-02-04T16:19:43.583Z,99290.70
2019-02-04T16:22:12.807Z,99295.23
2019-02-04T16:24:42.334Z,99298.30
2019-02-04T16:27:12.041Z,99295.75
2019-02-04T16:29:41.288Z,99298.84
2019-02-04T16:32:11.331Z,99290.41
2019-02-04T16:34:40.583Z,99290.99
2019-02-04T16:37:09.807Z,99293.86
2019-02-04T16:39:39.055Z,99296.56
2019-02-04T16:42:08.561Z,99295.26
2019-02-04T16:44:37.820Z,99292.05
2019-02-04T16:47:07.048Z,99295.84
2019-02-04T16:49:37.601Z,99293.23
2019-02-04T16:52:06.835Z,99304.67
2019-02-04T16:54:38.351Z,99298.84
2019-02-04T16:57:07.599Z,99301.20
2019-02-04T16:59:36.877Z,99305.51
2019-02-04T17:02:06.192Z,99306.36
2019-02-04T17:04:35.440Z,99305.77
2019-02-04T17:07:05.240Z,99315.98
2019-02-04T17:09:34.506Z,99308.48
2019-02-04T17:12:04.720Z,99311.14
2019-02-04T17:14:33.959Z,99313.38
2019-02-04T17:17:03.214Z,99312.57
2019-02-04T17:19:32.436Z,99309.12
2019-02-04T17:22:01.881Z,99305.91
2019-02-04T17:24:31.098Z,99310.42
2019-02-04T17:27:00.363Z,99306.50
2019-02-04T17:29:29.594Z,99308.77
2019-02-04T17:32:00.527Z,99316.97
2019-02-04T17:34:29.873Z,99312.45
2019-02-04T17:36:59.138Z,99313.07
2019-02-04T17:39:28.371Z,99315.93
2019-02-04T17:41:57.613Z,99328.73
2019-02-04T17:44:26.850Z,99319.48
2019-02-04T17:46:56.102Z,99324.36
2019-02-04T17:49:25.418Z,99322.19
2019-02-04T17:51:55.063Z,99325.38
2019-02-04T17:54:24.546Z,99324.91
2019-02-04T17:56:53.791Z,99327.64
2019-02-04T17:59:23.360Z,99329.42
2019-02-04T18:01:52.708Z,99331.71
2019-02-04T18:04:22.703Z,99331.48
2019-02-04T18:06:52.076Z,99336.00
2019-02-04T18:09:21.682Z,99331.72
2019-02-04T18:11:50.922Z,99331.47
2019-02-04T18:14:20.143Z,99336.21
2019-02-04T18:16:49.404Z,99341.72
2019-02-04T18:19:18.614Z,99339.69
2019-02-04T18:21:47.874Z,99334.09
2019-02-04T18:24:17.377Z,99339.08
2019-02-04T18:26:46.623Z,99335.39
2019-02-04T18:29:15.875Z,99337.99
2019-02-04T18:31:45.166Z,99335.84
2019-02-04T18:34:14.382Z,99330.98
2019-02-04T18:36:43.647Z,99333.91
2019-02-04T18:39:14.592Z,99338.66
2019-02-04T18:41:51.485Z,99344.00
2019-02-04T18:44:21.964Z,99344.00
2019-02-04T18:46:51.715Z,99349.91
2019-02-04T18:49:20.953Z,99348.14
2019-02-04T18:51:50.214Z,99350.83
2019-02-04T18:54:19.798Z,99345.02
2019-02-04T18:56:49.068Z,99345.70
2019-02-04T18:59:18.347Z,99337.74
2019-02-04T19:01:50.083Z,99335.72
2019-02-04T19:04:19.320Z,99337.00
2019-02-04T19:06:48.569Z,99330.82
2019-02-04T19:09:17.789Z,99324.98
2019-02-04T19:11:47.413Z,99315.94
2019-02-04T19:14:16.690Z,99324.14
2019-02-04T19:16:45.933Z,99324.38
2019-02-04T19:19:15.200Z,99324.28
2019-02-04T19:21:44.438Z,99329.89
2019-02-04T19:24:13.698Z,99339.93
2019-02-04T19:26:44.251Z,99346.66
2019-02-04T19:29:13.539Z,99349.55
2019-02-04T19:31:42.773Z,99347.74
2019-02-04T19:34:12.338Z,99346.31
2019-02-04T19:36:45.865Z,99346.55
2019-02-04T19:39:15.288Z,99336.14
2019-02-04T19:41:44.523Z,99340.34
2019-02-04T19:44:13.758Z,99345.45
2019-02-04T19:46:43.466Z,99339.84
2019-02-04T19:49:12.713Z,99337.47
2019-02-04T19:51:43.054Z,99338.27
2019-02-04T19:54:21.319Z,99337.08
2019-02-04T19:56:43.908Z,99334.59
2019-02-04T19:59:14.482Z,99328.36
2019-02-04T20:01:43.712Z,99331.23
2019-02-04T20:04:14.176Z,99330.96
2019-02-04T20:06:43.411Z,99330.34
2019-02-04T20:09:13.089Z,99328.41
2019-02-04T20:11:42.300Z,99332.31
2019-02-04T20:14:11.551Z,99331.80
2019-02-04T20:16:40.799Z,99327.63
2019-02-04T20:19:10.054Z,99326.42
2019-02-04T20:21:39.293Z,99326.59
2019-02-04T20:24:08.733Z,99318.34
2019-02-04T20:26:37.969Z,99315.27
2019-02-04T20:29:07.718Z,99318.39
2019-02-04T20:31:36.939Z,99314.48
2019-02-04T20:34:06.453Z,99311.72
2019-02-04T20:36:35.993Z,99310.91
2019-02-04T20:39:11.322Z,99323.88
2019-02-04T20:41:42.851Z,99318.94
2019-02-04T20:44:12.485Z,99316.33
2019-02-04T20:46:41.740Z,99319.56
2019-02-04T20:49:10.975Z,99311.25
2019-02-04T20:51:40.026Z,99318.68
2019-02-04T20:54:19.477Z,99314.32
2019-02-04T20:56:40.264Z,99327.27
2019-02-04T20:59:09.828Z,99327.91
2019-02-04T21:01:39.394Z,99329.66
2019-02-04T21:04:08.659Z,99325.91
2019-02-04T21:06:37.902Z,99334.38
2019-02-04T21:09:09.607Z,99330.12
2019-02-04T21:11:39.695Z,99329.27
2019-02-04T21:14:08.998Z,99329.77
2019-02-04T21:16:38.220Z,99330.22
2019-02-04T21:19:07.476Z,99326.81
2019-02-04T21:21:36.780Z,99321.37
2019-02-04T21:24:06.382Z,99327.86
2019-02-04T21:26:35.611Z,99331.67
2019-02-04T21:29:05.494Z,99339.91
2019-02-04T21:31:35.745Z,99344.39
2019-02-04T21:34:05.409Z,99346.41
2019-02-04T21:36:34.659Z,99342.41
2019-02-04T21:39:05.813Z,99354.28
2019-02-04T21:41:35.426Z,99350.20
2019-02-04T21:44:06.109Z,99354.48
2019-02-04T21:46:35.333Z,99356.99
2019-02-04T21:49:04.778Z,99356.05
2019-02-04T21:51:35.064Z,99357.55
2019-02-04T21:54:05.799Z,99354.50
2019-02-04T21:56:35.352Z,99355.80
2019-02-04T21:59:05.053Z,99348.45
2019-02-04T22:01:34.317Z,99342.70
2019-02-04T22:04:03.543Z,99344.73
2019-02-04T22:06:32.794Z,99349.73
2019-02-04T22:09:02.025Z,99346.27
2019-02-04T22:11:31.272Z,99342.47
2019-02-04T22:14:01.030Z,99350.55
2019-02-04T22:16:30.293Z,99344.84
2019-02-04T22:18:59.909Z,99337.04
2019-02-04T22:21:29.178Z,99335.27
2019-02-04T22:23:59.680Z,99331.05
2019-02-04T22:26:30.409Z,99330.95
2019-02-04T22:28:59.950Z,99331.56
2019-02-04T22:31:29.225Z,99334.93
2019-02-04T22:33:58.821Z,99331.90
2019-02-04T22:36:28.354Z,99335.14
2019-02-04T22:38:57.589Z,99330.29
2019-02-04T22:41:26.855Z,99329.09
2019-02-04T22:43:56.095Z,99330.14
2019-02-04T22:46:25.638Z,99334.16
2019-02-04T22:48:57.706Z,99345.52
2019-02-04T22:51:27.017Z,99336.93
2019-02-04T22:53:56.248Z,99334.16
2019-02-04T22:56:25.874Z,99335.27
2019-02-04T22:58:55.128Z,99333.22
2019-02-04T23:01:49.792Z,99329.06
2019-02-04T23:04:19.342Z,99328.32
2019-02-04T23:06:48.586Z,99326.67
2019-02-04T23:09:17.891Z,99329.51
2019-02-04T23:11:47.276Z,99322.37
2019-02-04T23:14:16.938Z,99322.77
2019-02-04T23:16:46.189Z,99314.89
2019-02-04T23:19:15.412Z,99312.64
2019-02-04T23:21:46.334Z,99315.63
2019-02-04T23:24:18.117Z,99313.28
2019-02-04T23:26:47.401Z,99309.84
2019-02-04T23:29:16.630Z,99313.59
2019-02-04T23:31:45.898Z,99313.48
2019-02-04T23:34:15.416Z,99318.31
2019-02-04T23:36:45.598Z,99315.98
2019-02-04T23:39:14.837Z,99315.14
2019-02-04T23:41:44.057Z,99318.23
2019-02-04T23:44:13.313Z,99312.92
2019-02-04T23:46:49.719Z,99312.28
2019-02-04T23:49:19.000Z,99311.62
2019-02-04T23:51:48.274Z,99312.73
2019-02-04T23:54:17.525Z,99308.20
2019-02-04T23:56:46.985Z,99310.24
2019-02-04T23:59:16.293Z,99307.28
